Terminal Aerodrome Forecast
Issued by NWS Central Illinois

Home | Current Version | Previous Version | Text Only | Print | Product List | Glossary On
Versions: 1 2 3 4 5 6 7 8 9 10 11 12 13 14 15 16 17 18 19 20 21 22 23 24 25 26 27 28 29 30
000
FTUS43 KILX 280520
TAFPIA
TAF
KPIA 280520Z 2806/2906 17005KT P6SM SCT120 BKN250
     FM280900 VRB03KT 3SM BR FEW007 BKN250
      TEMPO 2810/2813 1 1/2SM BR SCT007
     FM281400 14005KT P6SM SCT025 BKN250
     FM281900 14004KT P6SM VCTS SCT035CB BKN250
     FM290100 10003KT P6SM BKN250=

USA.gov is the U.S. government's official web portal to all federal, state and local government web resources and services.